Time;durP1;ratioP1;P1;durP2;ratioP2;P2;SDS_P1;SDS_P2;PMS_P1;PMS_P2;Temp;Humidity;BMP_temperature;BMP_pressure;BME280_temperature;BME280_humidity;BME280_pressure;Samples;Min_cycle;Max_cycle;Signal;HPM_P1;HPM_P2
2022/11/03 00:01:36;;;;;;;13.55;3.45;;;;;;;;;;5007840;28;20478;-81
2022/11/03 00:04:03;;;;;;;14.55;2.65;;;;;;;;;;5032623;28;20040;-81
2022/11/03 00:06:29;;;;;;;13.52;3.85;;;;;;;;;;5034682;28;20064;-83
2022/11/03 00:08:59;;;;;;;24.63;4.00;;;;;;;;;;5030259;28;20479;-82
2022/11/03 00:11:25;;;;;;;12.50;2.55;;;;;;;;;;5025068;28;20037;-82
2022/11/03 00:13:51;;;;;;;11.55;2.47;;;;;;;;;;5033898;28;20041;-83
2022/11/03 00:16:17;;;;;;;14.90;2.70;;;;;;;;;;5025406;28;20033;-82
2022/11/03 00:18:43;;;;;;;13.48;2.58;;;;;;;;;;5033024;28;20030;-83
2022/11/03 00:21:10;;;;;;;15.60;2.80;;;;;;;;;;5045793;28;20135;-81
2022/11/03 00:23:38;;;;;;;13.38;2.67;;;;;;;;;;5035266;28;20081;-85
2022/11/03 00:26:04;;;;;;;14.13;3.40;;;;;;;;;;5026220;28;20025;-81
2022/11/03 00:28:31;;;;;;;14.68;3.58;;;;;;;;;;5025850;28;20049;-81
2022/11/03 00:30:57;;;;;;;15.68;3.15;;;;;;;;;;5031306;28;20112;-81
2022/11/03 00:33:25;;;;;;;13.00;3.15;;;;;;;;;;5025883;28;20018;-83
2022/11/03 00:35:56;;;;;;;16.33;4.10;;;;;;;;;;5039517;28;20055;-84
2022/11/03 00:38:22;;;;;;;11.45;2.60;;;;;;;;;;5040373;28;20037;-82
2022/11/03 00:40:58;;;;;;;14.82;3.22;;;;;;;;;;5026458;28;20026;-82
2022/11/03 00:43:25;;;;;;;21.65;3.55;;;;;;;;;;5028824;28;20036;-80
2022/11/03 00:45:51;;;;;;;14.10;3.30;;;;;;;;;;5028394;28;20034;-83
2022/11/03 00:48:30;;;;;;;12.05;2.63;;;;;;;;;;5030200;28;20145;-81
2022/11/03 00:51:02;;;;;;;14.38;3.08;;;;;;;;;;5026532;28;20351;-82
2022/11/03 00:53:28;;;;;;;18.65;2.63;;;;;;;;;;5033554;28;20128;-81
2022/11/03 00:55:54;;;;;;;17.70;2.90;;;;;;;;;;5026990;28;20037;-83
2022/11/03 00:58:21;;;;;;;18.13;2.63;;;;;;;;;;5032934;28;20413;-82
2022/11/03 01:00:47;;;;;;;9.57;2.90;;;;;;;;;;5039403;28;20040;-82
2022/11/03 01:03:13;;;;;;;24.45;4.80;;;;;;;;;;5025938;28;20087;-82
2022/11/03 01:08:35;;;;;;;11.23;2.65;;;;;;;;;;5029515;28;20456;-85
2022/11/03 01:13:52;;;;;;;17.75;3.08;;;;;;;;;;5023995;28;20104;-84
2022/11/03 01:16:18;;;;;;;11.13;2.47;;;;;;;;;;5030874;28;20033;-81
2022/11/03 01:18:44;;;;;;;20.15;4.00;;;;;;;;;;5027596;28;20052;-82
2022/11/03 01:21:10;;;;;;;16.33;2.70;;;;;;;;;;5032906;28;20030;-81
2022/11/03 01:23:36;;;;;;;11.48;2.70;;;;;;;;;;5032233;28;20045;-80
2022/11/03 01:26:07;;;;;;;13.90;2.70;;;;;;;;;;5031831;28;20406;-81
2022/11/03 01:28:33;;;;;;;11.95;2.40;;;;;;;;;;5026356;28;20493;-80
2022/11/03 01:31:06;;;;;;;14.40;2.88;;;;;;;;;;5033241;28;20026;-81
2022/11/03 01:33:33;;;;;;;19.48;2.90;;;;;;;;;;5024300;28;20029;-80
2022/11/03 01:35:59;;;;;;;19.90;3.40;;;;;;;;;;5035447;28;20104;-80
2022/11/03 01:38:25;;;;;;;15.32;3.50;;;;;;;;;;5026540;28;20136;-80
2022/11/03 01:40:51;;;;;;;16.83;3.45;;;;;;;;;;5013174;28;20034;-82
2022/11/03 01:43:19;;;;;;;17.70;2.90;;;;;;;;;;5030661;28;20041;-80
2022/11/03 01:45:47;;;;;;;20.33;2.85;;;;;;;;;;5028779;28;20147;-81
2022/11/03 01:48:13;;;;;;;13.80;2.22;;;;;;;;;;5031333;28;20136;-80
2022/11/03 01:50:40;;;;;;;15.70;3.03;;;;;;;;;;5031066;28;20083;-80
2022/11/03 01:53:07;;;;;;;15.32;3.30;;;;;;;;;;5022927;28;21604;-81
2022/11/03 01:55:35;;;;;;;17.05;2.60;;;;;;;;;;5030871;28;20379;-81
2022/11/03 01:58:13;;;;;;;18.33;2.88;;;;;;;;;;5031580;28;20033;-81
2022/11/03 02:03:16;;;;;;;11.32;2.22;;;;;;;;;;6064465;23;20247;-79
2022/11/03 02:05:45;;;;;;;11.52;3.08;;;;;;;;;;5044091;23;20037;-81
2022/11/03 02:08:20;;;;;;;14.82;3.25;;;;;;;;;;5058973;28;20028;-82
2022/11/03 02:10:47;;;;;;;15.23;2.83;;;;;;;;;;5067901;28;20060;-83
2022/11/03 02:13:20;;;;;;;17.60;3.42;;;;;;;;;;5072176;28;20380;-80
2022/11/03 02:15:48;;;;;;;12.70;3.28;;;;;;;;;;5063254;28;20473;-80
2022/11/03 02:18:15;;;;;;;18.75;4.18;;;;;;;;;;5065840;28;20062;-80
2022/11/03 02:20:41;;;;;;;19.40;2.72;;;;;;;;;;5068100;28;20436;-80
2022/11/03 02:23:10;;;;;;;14.70;3.00;;;;;;;;;;5066885;28;20032;-80
2022/11/03 02:25:36;;;;;;;16.15;4.28;;;;;;;;;;5064691;28;20040;-79
2022/11/03 02:28:03;;;;;;;16.35;2.67;;;;;;;;;;5070552;28;20033;-80
2022/11/03 02:30:35;;;;;;;15.95;4.03;;;;;;;;;;5065731;28;20230;-79
2022/11/03 02:33:10;;;;;;;13.73;2.92;;;;;;;;;;5067337;28;20435;-79
2022/11/03 02:35:48;;;;;;;7.72;2.33;;;;;;;;;;5066572;28;20480;-79
2022/11/03 02:38:15;;;;;;;18.23;2.75;;;;;;;;;;5064140;28;20040;-80
2022/11/03 02:40:45;;;;;;;13.25;3.03;;;;;;;;;;5066244;28;20154;-80
2022/11/03 02:43:11;;;;;;;13.90;2.90;;;;;;;;;;5064857;28;20052;-79
2022/11/03 02:45:38;;;;;;;19.58;3.17;;;;;;;;;;5069686;28;20032;-80
2022/11/03 02:48:04;;;;;;;16.83;3.65;;;;;;;;;;5070757;28;20068;-80
2022/11/03 02:50:31;;;;;;;19.08;3.53;;;;;;;;;;5063964;28;20114;-80
2022/11/03 02:52:58;;;;;;;17.02;3.38;;;;;;;;;;5068721;28;20020;-82
2022/11/03 02:55:23;;;;;;;14.65;4.00;;;;;;;;;;5069667;28;20163;-81
2022/11/03 02:58:01;;;;;;;15.27;4.35;;;;;;;;;;5056217;28;20115;-81
2022/11/03 03:00:29;;;;;;;11.85;2.17;;;;;;;;;;5070187;28;20048;-80
2022/11/03 03:02:58;;;;;;;19.48;4.10;;;;;;;;;;5061948;28;20036;-83
2022/11/03 03:05:26;;;;;;;20.20;4.30;;;;;;;;;;5086419;28;20150;-81
2022/11/03 03:07:55;;;;;;;22.65;3.28;;;;;;;;;;5071919;28;20249;-81
2022/11/03 03:10:24;;;;;;;17.38;3.47;;;;;;;;;;5086116;28;20605;-83
2022/11/03 03:12:51;;;;;;;30.75;4.78;;;;;;;;;;5069875;28;20399;-82
2022/11/03 03:15:20;;;;;;;18.48;3.55;;;;;;;;;;5083445;28;20475;-80
2022/11/03 03:17:52;;;;;;;22.23;3.55;;;;;;;;;;5088183;28;20051;-80
2022/11/03 03:20:28;;;;;;;20.63;4.97;;;;;;;;;;5085639;28;20059;-80
2022/11/03 03:23:16;;;;;;;13.65;4.35;;;;;;;;;;5087771;28;20032;-83
2022/11/03 03:25:45;;;;;;;23.38;2.85;;;;;;;;;;5091580;28;20023;-82
2022/11/03 03:28:27;;;;;;;12.05;3.10;;;;;;;;;;5083652;28;20036;-81
2022/11/03 03:30:54;;;;;;;19.27;2.75;;;;;;;;;;5064049;28;20024;-83
2022/11/03 03:33:20;;;;;;;12.27;2.88;;;;;;;;;;5089778;28;20028;-80
2022/11/03 03:35:48;;;;;;;20.05;3.40;;;;;;;;;;5091042;28;20027;-80
2022/11/03 03:38:25;;;;;;;16.50;3.67;;;;;;;;;;5080838;28;20515;-80
2022/11/03 03:40:52;;;;;;;13.73;2.67;;;;;;;;;;5078896;28;20043;-80
2022/11/03 03:43:19;;;;;;;14.93;2.80;;;;;;;;;;5088056;28;20028;-80
2022/11/03 03:45:45;;;;;;;15.90;2.92;;;;;;;;;;5084675;28;20043;-78
2022/11/03 03:48:12;;;;;;;22.25;3.28;;;;;;;;;;5087683;28;20039;-78
2022/11/03 03:50:38;;;;;;;18.42;3.10;;;;;;;;;;5082929;28;20028;-82
2022/11/03 03:53:05;;;;;;;24.45;9.05;;;;;;;;;;5089969;28;20068;-85
2022/11/03 03:55:36;;;;;;;20.67;6.30;;;;;;;;;;5083135;28;20032;-83
2022/11/03 03:58:02;;;;;;;30.15;6.70;;;;;;;;;;5088743;28;20024;-84
2022/11/03 04:00:29;;;;;;;18.55;3.42;;;;;;;;;;5086698;28;20062;-81
2022/11/03 04:02:58;;;;;;;15.55;4.20;;;;;;;;;;5080045;28;20455;-84
2022/11/03 04:05:25;;;;;;;14.63;2.92;;;;;;;;;;5062269;28;20466;-81
2022/11/03 04:07:51;;;;;;;17.13;2.92;;;;;;;;;;5062866;28;20040;-82
2022/11/03 04:10:18;;;;;;;22.45;3.58;;;;;;;;;;5070610;28;20104;-83
2022/11/03 04:22:15;;;;;;;17.63;3.08;;;;;;;;;;5062233;28;20086;-81
2022/11/03 04:24:01;;;;;;;17.02;3.10;;;;;;;;;;5070123;28;20047;-80
2022/11/03 04:26:27;;;;;;;16.02;3.33;;;;;;;;;;5058439;28;20021;-80
2022/11/03 04:28:55;;;;;;;13.35;2.95;;;;;;;;;;5069393;28;20032;-81
2022/11/03 04:31:21;;;;;;;18.05;3.70;;;;;;;;;;5059886;28;20479;-79
2022/11/03 04:33:47;;;;;;;25.63;3.97;;;;;;;;;;5067387;28;20106;-78
2022/11/03 04:36:19;;;;;;;11.18;2.60;;;;;;;;;;5059875;28;20032;-80
2022/11/03 04:38:45;;;;;;;23.08;4.65;;;;;;;;;;5066021;28;20036;-80
2022/11/03 04:41:31;;;;;;;18.02;4.15;;;;;;;;;;5061389;28;20033;-78
2022/11/03 04:43:57;;;;;;;21.38;4.55;;;;;;;;;;5070378;28;20436;-81
2022/11/03 04:46:27;;;;;;;14.10;2.47;;;;;;;;;;5069184;28;20032;-80
2022/11/03 04:48:54;;;;;;;21.75;2.95;;;;;;;;;;5069479;28;20025;-82
2022/11/03 04:51:24;;;;;;;13.60;2.92;;;;;;;;;;5064315;28;20029;-80
2022/11/03 04:53:53;;;;;;;14.52;2.50;;;;;;;;;;5072459;28;20050;-83
2022/11/03 04:56:20;;;;;;;14.65;2.75;;;;;;;;;;5064669;28;20131;-78
2022/11/03 04:58:47;;;;;;;12.50;2.63;;;;;;;;;;5072431;28;20178;-80
2022/11/03 05:01:14;;;;;;;12.75;2.92;;;;;;;;;;5071239;28;20082;-80
2022/11/03 05:03:41;;;;;;;11.48;2.67;;;;;;;;;;5066562;28;20167;-82
2022/11/03 05:06:15;;;;;;;17.25;4.13;;;;;;;;;;5090564;28;20059;-82
2022/11/03 05:08:42;;;;;;;14.40;2.63;;;;;;;;;;5098348;28;20044;-84
2022/11/03 05:11:19;;;;;;;18.42;3.10;;;;;;;;;;5068786;28;20028;-80
2022/11/03 05:13:45;;;;;;;15.80;2.90;;;;;;;;;;5092065;28;20032;-81
2022/11/03 05:16:11;;;;;;;17.58;3.55;;;;;;;;;;5085159;28;20078;-80
2022/11/03 05:18:38;;;;;;;15.57;2.50;;;;;;;;;;5085770;28;20114;-81
2022/11/03 05:21:07;;;;;;;9.95;2.97;;;;;;;;;;5091952;28;20052;-79
2022/11/03 05:23:38;;;;;;;8.88;2.35;;;;;;;;;;5092134;28;20063;-79
2022/11/03 05:26:05;;;;;;;13.95;2.53;;;;;;;;;;5078849;28;20074;-80
2022/11/03 05:28:42;;;;;;;17.95;3.92;;;;;;;;;;5087122;28;20080;-80
2022/11/03 05:31:17;;;;;;;17.15;3.50;;;;;;;;;;5084480;28;20028;-80
2022/11/03 05:33:46;;;;;;;18.70;4.18;;;;;;;;;;5091399;28;20020;-83
2022/11/03 05:36:13;;;;;;;24.08;3.90;;;;;;;;;;5070270;28;20111;-79
2022/11/03 05:38:39;;;;;;;14.00;2.60;;;;;;;;;;5091310;28;20464;-81
2022/11/03 05:41:11;;;;;;;12.82;2.75;;;;;;;;;;5089045;28;20115;-81
2022/11/03 05:43:37;;;;;;;9.98;3.17;;;;;;;;;;5090854;28;20028;-79
2022/11/03 05:46:03;;;;;;;16.95;4.38;;;;;;;;;;5085783;28;20047;-80
2022/11/03 05:48:39;;;;;;;14.93;2.90;;;;;;;;;;5070077;28;20046;-80
2022/11/03 05:51:26;;;;;;;13.82;3.03;;;;;;;;;;5093285;28;20085;-81
2022/11/03 05:53:56;;;;;;;24.60;3.22;;;;;;;;;;5085697;28;20414;-86
2022/11/03 05:56:24;;;;;;;12.88;2.42;;;;;;;;;;5092261;28;20028;-81
2022/11/03 05:58:56;;;;;;;18.45;3.30;;;;;;;;;;5081522;28;20024;-80
2022/11/03 06:01:33;;;;;;;21.10;2.78;;;;;;;;;;5067395;28;20379;-81
2022/11/03 06:04:00;;;;;;;16.83;2.45;;;;;;;;;;5090909;28;20040;-80
2022/11/03 06:06:34;;;;;;;15.13;2.50;;;;;;;;;;5068596;28;20072;-81
2022/11/03 06:09:09;;;;;;;21.33;3.35;;;;;;;;;;5064610;28;20116;-82
2022/11/03 06:11:35;;;;;;;12.15;2.60;;;;;;;;;;5072094;28;20064;-82
2022/11/03 06:14:05;;;;;;;19.77;3.17;;;;;;;;;;5071467;28;20043;-80
2022/11/03 06:16:36;;;;;;;15.93;2.75;;;;;;;;;;5053409;28;20021;-80
2022/11/03 06:19:12;;;;;;;11.40;2.92;;;;;;;;;;5067634;28;20032;-82
2022/11/03 06:21:38;;;;;;;21.45;3.08;;;;;;;;;;5071657;28;20043;-80
2022/11/03 06:24:09;;;;;;;17.13;3.53;;;;;;;;;;5066133;28;20111;-79
2022/11/03 06:26:35;;;;;;;22.77;3.38;;;;;;;;;;5066291;28;20538;-79
2022/11/03 06:29:01;;;;;;;20.77;4.00;;;;;;;;;;5063399;28;21810;-80
2022/11/03 06:31:28;;;;;;;20.05;2.33;;;;;;;;;;5068560;28;20082;-80
2022/11/03 06:33:55;;;;;;;10.38;2.42;;;;;;;;;;5053907;28;20489;-82
2022/11/03 06:36:22;;;;;;;15.00;2.63;;;;;;;;;;5054983;28;20491;-80
2022/11/03 06:39:01;;;;;;;11.50;2.47;;;;;;;;;;5066789;28;20029;-81
2022/11/03 06:41:29;;;;;;;12.90;3.08;;;;;;;;;;5065297;28;20089;-79
2022/11/03 06:43:55;;;;;;;12.45;2.25;;;;;;;;;;5070156;28;20249;-80
2022/11/03 06:46:25;;;;;;;14.52;2.90;;;;;;;;;;5060171;28;20028;-81
2022/11/03 06:48:58;;;;;;;13.38;3.10;;;;;;;;;;5065911;28;20417;-83
2022/11/03 06:51:25;;;;;;;14.07;2.70;;;;;;;;;;5060499;28;20032;-81
2022/11/03 06:53:52;;;;;;;11.63;2.55;;;;;;;;;;5069045;28;20094;-85
2022/11/03 06:56:20;;;;;;;15.35;2.80;;;;;;;;;;5061344;28;20112;-83
2022/11/03 06:58:47;;;;;;;18.00;3.15;;;;;;;;;;5070726;28;20056;-86
2022/11/03 07:01:22;;;;;;;16.30;3.30;;;;;;;;;;5066587;28;20024;-83
2022/11/03 07:03:52;;;;;;;15.73;3.88;;;;;;;;;;5063921;28;21681;-80
2022/11/03 07:06:23;;;;;;;22.63;6.05;;;;;;;;;;5058950;28;20045;-86
2022/11/03 07:08:51;;;;;;;12.27;2.95;;;;;;;;;;5072228;28;20090;-88
2022/11/03 07:11:24;;;;;;;12.88;3.90;;;;;;;;;;5073062;28;20039;-86
2022/11/03 07:13:52;;;;;;;21.00;4.80;;;;;;;;;;5067224;28;20028;-83
2022/11/03 07:16:29;;;;;;;9.05;2.20;;;;;;;;;;5058150;28;20041;-84
2022/11/03 07:18:55;;;;;;;14.43;3.75;;;;;;;;;;5062616;28;20566;-87
2022/11/03 07:21:35;;;;;;;11.52;2.15;;;;;;;;;;5071099;28;20505;-82
2022/11/03 07:24:04;;;;;;;14.38;3.22;;;;;;;;;;5054157;28;20033;-85
2022/11/03 07:26:32;;;;;;;11.57;2.28;;;;;;;;;;5053489;28;20032;-84
2022/11/03 07:28:59;;;;;;;12.05;2.92;;;;;;;;;;5058421;28;20480;-85
2022/11/03 07:31:25;;;;;;;13.55;2.45;;;;;;;;;;5057921;28;20028;-82
2022/11/03 07:33:58;;;;;;;9.38;3.33;;;;;;;;;;5070964;28;20153;-84
2022/11/03 07:36:25;;;;;;;13.75;3.60;;;;;;;;;;5069713;28;20438;-85
2022/11/03 07:38:52;;;;;;;18.88;3.03;;;;;;;;;;5061766;28;20021;-84
2022/11/03 07:41:20;;;;;;;17.65;3.08;;;;;;;;;;5068048;28;20063;-82
2022/11/03 07:43:51;;;;;;;8.25;3.45;;;;;;;;;;5069899;28;20032;-78
2022/11/03 07:46:19;;;;;;;18.83;5.30;;;;;;;;;;5058511;28;20032;-80
2022/11/03 07:48:46;;;;;;;15.65;2.60;;;;;;;;;;5065424;28;20032;-80
2022/11/03 07:51:18;;;;;;;16.40;3.60;;;;;;;;;;5061376;28;20063;-83
2022/11/03 07:53:45;;;;;;;17.38;3.05;;;;;;;;;;5063760;28;20082;-79
2022/11/03 07:56:41;;;;;;;13.07;3.63;;;;;;;;;;5063009;28;20029;-83
2022/11/03 07:59:12;;;;;;;14.60;3.33;;;;;;;;;;5047266;28;20198;-84
2022/11/03 08:01:42;;;;;;;10.73;2.70;;;;;;;;;;5066474;28;20067;-79
2022/11/03 08:04:13;;;;;;;13.57;4.72;;;;;;;;;;5069091;28;20102;-80
2022/11/03 08:06:39;;;;;;;14.38;3.30;;;;;;;;;;5084567;28;20063;-83
2022/11/03 08:09:05;;;;;;;15.20;2.80;;;;;;;;;;5093179;28;20032;-86
2022/11/03 08:11:31;;;;;;;18.65;4.35;;;;;;;;;;5090118;28;20029;-84
2022/11/03 08:13:57;;;;;;;13.90;2.90;;;;;;;;;;5096145;28;20115;-82
2022/11/03 08:16:23;;;;;;;13.88;2.65;;;;;;;;;;5088955;28;20140;-82
2022/11/03 08:18:49;;;;;;;15.23;2.50;;;;;;;;;;5077807;28;20056;-82
2022/11/03 08:21:16;;;;;;;8.90;2.90;;;;;;;;;;5090339;28;20038;-82
2022/11/03 08:23:42;;;;;;;13.10;2.03;;;;;;;;;;5076831;28;20426;-80
2022/11/03 08:26:08;;;;;;;12.40;2.78;;;;;;;;;;5093238;28;20048;-81
2022/11/03 08:28:35;;;;;;;10.95;3.00;;;;;;;;;;5091188;28;21171;-77
2022/11/03 08:31:03;;;;;;;11.65;2.80;;;;;;;;;;5087200;28;20063;-76
2022/11/03 08:33:35;;;;;;;21.83;5.13;;;;;;;;;;5085668;28;20024;-76
2022/11/03 08:36:02;;;;;;;14.15;2.90;;;;;;;;;;5072327;28;20402;-81
2022/11/03 08:38:28;;;;;;;10.90;2.13;;;;;;;;;;5082372;28;20044;-83
2022/11/03 08:40:55;;;;;;;9.52;3.10;;;;;;;;;;5093381;28;20095;-84
2022/11/03 08:43:21;;;;;;;10.25;2.45;;;;;;;;;;5085542;28;20040;-82
2022/11/03 08:45:52;;;;;;;14.02;3.00;;;;;;;;;;5086694;28;20066;-79
2022/11/03 08:48:18;;;;;;;11.30;2.83;;;;;;;;;;5089785;28;20031;-83
2022/11/03 08:50:44;;;;;;;9.48;2.30;;;;;;;;;;5091038;28;20032;-85
2022/11/03 08:53:10;;;;;;;11.68;2.38;;;;;;;;;;5087736;28;20024;-83
2022/11/03 08:55:36;;;;;;;10.05;2.95;;;;;;;;;;5088306;28;20020;-84
2022/11/03 08:58:02;;;;;;;10.40;2.70;;;;;;;;;;5077589;28;20035;-79
2022/11/03 09:00:28;;;;;;;14.55;4.07;;;;;;;;;;5082658;28;20361;-76
2022/11/03 09:02:55;;;;;;;13.00;4.88;;;;;;;;;;5066036;28;20037;-76
2022/11/03 09:05:21;;;;;;;11.07;2.72;;;;;;;;;;5083598;28;20121;-82
2022/11/03 09:07:47;;;;;;;14.48;3.53;;;;;;;;;;5091387;28;20460;-83
2022/11/03 09:10:13;;;;;;;11.63;2.85;;;;;;;;;;5088161;28;20031;-82
2022/11/03 09:12:39;;;;;;;16.15;3.20;;;;;;;;;;5084689;28;20388;-83
2022/11/03 09:15:05;;;;;;;14.07;2.78;;;;;;;;;;5082277;28;20101;-79
2022/11/03 09:17:32;;;;;;;13.70;3.72;;;;;;;;;;5093553;28;20039;-78
2022/11/03 09:19:58;;;;;;;15.38;2.30;;;;;;;;;;5084415;28;20032;-79
2022/11/03 09:22:24;;;;;;;14.13;3.00;;;;;;;;;;5088847;28;20115;-79
2022/11/03 09:24:50;;;;;;;13.00;2.85;;;;;;;;;;5084481;28;20024;-78
2022/11/03 09:27:16;;;;;;;13.63;3.53;;;;;;;;;;5094788;28;20024;-78
2022/11/03 09:29:42;;;;;;;8.80;2.75;;;;;;;;;;5090828;28;20083;-78
2022/11/03 09:32:09;;;;;;;12.02;2.83;;;;;;;;;;5061003;28;20115;-78
2022/11/03 09:34:37;;;;;;;11.50;2.65;;;;;;;;;;5078521;28;20537;-75
2022/11/03 09:37:03;;;;;;;14.90;4.18;;;;;;;;;;5091970;28;20375;-74
2022/11/03 09:39:29;;;;;;;13.70;2.60;;;;;;;;;;5088034;28;20059;-76
2022/11/03 09:41:56;;;;;;;13.65;2.75;;;;;;;;;;5086502;28;20498;-76
2022/11/03 09:44:22;;;;;;;16.40;2.55;;;;;;;;;;5086170;28;20111;-77
2022/11/03 09:46:50;;;;;;;14.02;3.53;;;;;;;;;;5082894;28;20160;-77
2022/11/03 09:49:16;;;;;;;16.65;2.60;;;;;;;;;;5088842;28;20032;-77
2022/11/03 09:51:44;;;;;;;12.55;2.58;;;;;;;;;;5066594;28;20153;-77
2022/11/03 09:54:11;;;;;;;13.45;2.63;;;;;;;;;;5084327;28;20039;-78
2022/11/03 09:56:37;;;;;;;11.65;2.55;;;;;;;;;;5075946;28;20033;-78
2022/11/03 09:59:20;;;;;;;10.60;3.33;;;;;;;;;;5063935;28;20163;-80
2022/11/03 10:01:48;;;;;;;20.83;8.02;;;;;;;;;;5090334;28;20028;-77
2022/11/03 10:04:15;;;;;;;16.33;3.40;;;;;;;;;;5070886;28;20032;-77
2022/11/03 10:06:41;;;;;;;19.70;3.83;;;;;;;;;;5088684;28;20130;-82
2022/11/03 10:09:10;;;;;;;20.38;4.10;;;;;;;;;;5084041;28;20631;-79
2022/11/03 10:11:37;;;;;;;13.55;3.15;;;;;;;;;;5086748;28;20475;-82
2022/11/03 10:14:05;;;;;;;13.57;3.47;;;;;;;;;;5090044;28;20067;-81
2022/11/03 10:16:31;;;;;;;15.43;3.22;;;;;;;;;;5090090;28;20123;-82
2022/11/03 10:18:59;;;;;;;12.70;3.15;;;;;;;;;;5085634;28;20450;-82
2022/11/03 10:21:27;;;;;;;20.45;3.70;;;;;;;;;;5091810;28;20063;-82
2022/11/03 10:23:53;;;;;;;8.88;2.28;;;;;;;;;;5082562;28;20024;-82
2022/11/03 10:26:21;;;;;;;16.30;3.13;;;;;;;;;;5073959;28;20119;-81
2022/11/03 10:29:09;;;;;;;13.07;3.40;;;;;;;;;;5091489;28;20081;-82
2022/11/03 10:31:36;;;;;;;14.10;3.10;;;;;;;;;;5090859;28;20050;-80
2022/11/03 10:34:03;;;;;;;15.70;3.03;;;;;;;;;;5090190;28;20028;-81
2022/11/03 10:36:30;;;;;;;9.45;2.85;;;;;;;;;;5071709;28;20427;-79
2022/11/03 10:38:56;;;;;;;13.20;2.85;;;;;;;;;;5079211;28;20077;-82
2022/11/03 10:41:24;;;;;;;18.05;5.53;;;;;;;;;;5072978;28;20468;-82
2022/11/03 10:44:01;;;;;;;14.50;3.72;;;;;;;;;;5088031;28;20035;-83
2022/11/03 10:46:27;;;;;;;17.52;4.03;;;;;;;;;;5081776;28;20119;-81
2022/11/03 10:49:01;;;;;;;11.00;3.03;;;;;;;;;;5105231;28;20039;-84
2022/11/03 10:51:28;;;;;;;10.35;2.55;;;;;;;;;;5089566;28;20137;-82
2022/11/03 10:53:54;;;;;;;14.65;2.20;;;;;;;;;;5063059;28;20468;-80
2022/11/03 10:56:21;;;;;;;8.82;2.30;;;;;;;;;;5072968;28;20558;-82
2022/11/03 10:58:48;;;;;;;11.23;2.92;;;;;;;;;;5087025;28;20044;-81
2022/11/03 11:01:14;;;;;;;10.20;2.78;;;;;;;;;;5080360;28;20554;-84
2022/11/03 11:03:42;;;;;;;10.20;2.90;;;;;;;;;;5076600;28;20032;-79
2022/11/03 11:06:19;;;;;;;17.77;4.20;;;;;;;;;;5071781;28;20044;-79
2022/11/03 11:08:45;;;;;;;12.93;2.83;;;;;;;;;;5083777;28;20032;-78
2022/11/03 11:11:14;;;;;;;7.97;2.58;;;;;;;;;;5080855;28;20028;-80
2022/11/03 11:13:40;;;;;;;13.10;2.55;;;;;;;;;;5090381;28;20036;-90
2022/11/03 11:16:26;;;;;;;8.73;1.70;;;;;;;;;;5082746;28;20093;-88
2022/11/03 11:18:52;;;;;;;7.32;3.10;;;;;;;;;;5087093;28;20545;-90
2022/11/03 11:21:18;;;;;;;15.55;3.30;;;;;;;;;;5059946;28;20016;-85
2022/11/03 11:23:45;;;;;;;11.02;3.15;;;;;;;;;;5086893;28;20031;-84
2022/11/03 11:26:16;;;;;;;9.93;2.42;;;;;;;;;;5082494;28;20051;-81
2022/11/03 11:28:46;;;;;;;9.07;2.20;;;;;;;;;;5088050;28;20032;-81
2022/11/03 11:31:31;;;;;;;19.38;3.85;;;;;;;;;;5084306;28;20028;-82
2022/11/03 11:34:11;;;;;;;6.20;2.10;;;;;;;;;;5063438;28;20059;-82
2022/11/03 11:36:37;;;;;;;13.80;2.60;;;;;;;;;;5090161;28;20032;-80
2022/11/03 11:39:04;;;;;;;10.73;2.22;;;;;;;;;;5083092;28;20408;-81
2022/11/03 11:41:50;;;;;;;6.15;2.05;;;;;;;;;;5090161;28;20039;-82
2022/11/03 11:44:35;;;;;;;57.30;29.95;;;;;;;;;;5077657;28;20028;-81
2022/11/03 11:47:01;;;;;;;19.05;9.48;;;;;;;;;;5089149;28;20050;-80
2022/11/03 11:49:27;;;;;;;10.43;2.35;;;;;;;;;;5080434;28;20040;-85
2022/11/03 11:51:53;;;;;;;12.35;2.67;;;;;;;;;;5083208;28;20028;-84
2022/11/03 11:54:20;;;;;;;13.75;3.17;;;;;;;;;;5088945;28;20035;-82
2022/11/03 11:56:47;;;;;;;9.60;1.67;;;;;;;;;;5078810;28;20036;-83
2022/11/03 11:59:23;;;;;;;8.70;2.33;;;;;;;;;;5088542;28;20051;-82
2022/11/03 12:01:53;;;;;;;9.02;2.45;;;;;;;;;;5094245;28;20059;-82
2022/11/03 12:04:23;;;;;;;14.20;2.15;;;;;;;;;;5090272;28;20050;-82
2022/11/03 12:06:50;;;;;;;13.68;2.33;;;;;;;;;;5078841;28;20197;-83
2022/11/03 12:09:20;;;;;;;7.35;2.42;;;;;;;;;;5090460;28;20109;-84
2022/11/03 12:11:50;;;;;;;9.85;2.80;;;;;;;;;;5087978;28;20032;-83
2022/11/03 12:14:23;;;;;;;8.55;2.42;;;;;;;;;;5075308;28;20039;-83
2022/11/03 12:16:49;;;;;;;8.57;1.80;;;;;;;;;;5094350;28;20043;-82
2022/11/03 12:19:33;;;;;;;7.63;2.22;;;;;;;;;;5083494;28;20043;-81
2022/11/03 12:22:00;;;;;;;8.48;2.00;;;;;;;;;;5084844;28;20031;-82
2022/11/03 12:24:26;;;;;;;9.75;2.45;;;;;;;;;;5073593;28;20028;-82
2022/11/03 12:26:52;;;;;;;11.57;2.45;;;;;;;;;;5075333;28;20024;-82
2022/11/03 12:29:18;;;;;;;11.82;2.33;;;;;;;;;;5074687;28;20039;-82
2022/11/03 12:31:46;;;;;;;12.40;2.45;;;;;;;;;;5091072;28;20036;-82
2022/11/03 12:34:12;;;;;;;10.90;2.03;;;;;;;;;;5097649;28;20112;-84
2022/11/03 12:36:38;;;;;;;12.02;2.92;;;;;;;;;;5094334;28;20071;-83
2022/11/03 12:39:04;;;;;;;6.97;2.13;;;;;;;;;;5075070;28;20039;-82
2022/11/03 12:41:31;;;;;;;9.70;2.13;;;;;;;;;;5094369;28;20032;-83
2022/11/03 12:43:57;;;;;;;8.63;1.98;;;;;;;;;;5085593;28;20404;-82
2022/11/03 12:46:23;;;;;;;7.57;1.80;;;;;;;;;;5091590;28;20028;-83
2022/11/03 12:48:49;;;;;;;8.75;1.85;;;;;;;;;;5087686;28;20035;-83
2022/11/03 12:51:17;;;;;;;11.75;2.47;;;;;;;;;;5084371;28;20074;-82
2022/11/03 12:53:43;;;;;;;5.65;2.05;;;;;;;;;;5082784;28;20025;-83
2022/11/03 12:56:10;;;;;;;6.78;1.80;;;;;;;;;;5091869;28;20456;-84
2022/11/03 12:58:36;;;;;;;5.93;1.77;;;;;;;;;;5094195;28;20059;-83
2022/11/03 13:01:02;;;;;;;12.20;3.03;;;;;;;;;;5090864;28;20028;-82
2022/11/03 13:03:28;;;;;;;8.07;2.15;;;;;;;;;;5094070;28;20107;-84
2022/11/03 13:05:54;;;;;;;8.27;2.15;;;;;;;;;;5093224;28;20048;-84
2022/11/03 13:08:21;;;;;;;4.70;1.95;;;;;;;;;;5093367;28;20032;-83
2022/11/03 13:10:47;;;;;;;6.03;1.98;;;;;;;;;;5078205;28;20139;-83
2022/11/03 13:13:13;;;;;;;10.88;2.50;;;;;;;;;;5094340;28;20028;-84
2022/11/03 13:15:39;;;;;;;5.95;1.85;;;;;;;;;;5090492;28;20078;-83
2022/11/03 13:18:05;;;;;;;6.28;2.63;;;;;;;;;;5074968;28;20066;-83
2022/11/03 13:20:32;;;;;;;6.03;1.80;;;;;;;;;;5094121;28;20054;-82
2022/11/03 13:22:58;;;;;;;8.95;2.55;;;;;;;;;;5093471;28;20040;-82
2022/11/03 13:25:24;;;;;;;7.10;2.00;;;;;;;;;;5092076;28;20028;-83
2022/11/03 13:27:52;;;;;;;12.60;2.83;;;;;;;;;;5092954;28;20047;-77
2022/11/03 13:30:19;;;;;;;10.60;2.50;;;;;;;;;;5081478;28;20082;-84
2022/11/03 13:32:46;;;;;;;8.73;1.88;;;;;;;;;;5080457;28;20024;-83
2022/11/03 13:35:12;;;;;;;9.55;2.15;;;;;;;;;;5093613;28;20032;-83
2022/11/03 13:37:38;;;;;;;10.02;3.03;;;;;;;;;;5092848;28;20055;-83
2022/11/03 13:40:04;;;;;;;7.78;2.40;;;;;;;;;;5089483;28;20071;-84
2022/11/03 13:42:30;;;;;;;7.82;2.13;;;;;;;;;;5092236;28;20035;-84
2022/11/03 13:44:56;;;;;;;4.57;1.77;;;;;;;;;;5097593;28;20032;-77
2022/11/03 13:47:23;;;;;;;12.55;2.45;;;;;;;;;;5087464;28;20476;-77
2022/11/03 13:49:52;;;;;;;11.10;1.90;;;;;;;;;;5090633;28;20036;-76
2022/11/03 13:52:18;;;;;;;11.95;2.10;;;;;;;;;;5092405;28;20055;-76
2022/11/03 13:54:45;;;;;;;8.10;2.20;;;;;;;;;;5092809;28;20393;-77
2022/11/03 13:57:12;;;;;;;7.32;2.17;;;;;;;;;;5086185;28;21154;-76
2022/11/03 13:59:37;;;;;;;5.95;2.10;;;;;;;;;;5086630;28;20036;-76
2022/11/03 14:02:04;;;;;;;6.47;2.45;;;;;;;;;;5087997;28;20027;-77
2022/11/03 14:04:30;;;;;;;7.95;2.05;;;;;;;;;;5093307;28;20056;-76
2022/11/03 14:06:56;;;;;;;6.53;1.95;;;;;;;;;;5085982;28;20050;-78
2022/11/03 14:09:22;;;;;;;5.40;1.60;;;;;;;;;;5071430;28;20036;-78
2022/11/03 14:14:33;;;;;;;6.68;1.75;;;;;;;;;;5077128;28;20105;-78
2022/11/03 14:16:59;;;;;;;7.43;1.67;;;;;;;;;;5077792;28;20028;-77
2022/11/03 14:19:26;;;;;;;5.30;2.00;;;;;;;;;;5092681;28;20036;-77
2022/11/03 14:21:52;;;;;;;10.65;1.77;;;;;;;;;;5085815;28;20044;-79
2022/11/03 14:24:18;;;;;;;10.35;2.00;;;;;;;;;;5090788;28;20043;-77
2022/11/03 14:26:45;;;;;;;9.55;2.10;;;;;;;;;;5090138;28;20044;-77
2022/11/03 14:29:11;;;;;;;7.32;2.78;;;;;;;;;;5051497;28;20035;-79
2022/11/03 14:31:38;;;;;;;4.88;2.00;;;;;;;;;;5090182;28;20071;-77
2022/11/03 14:34:04;;;;;;;14.02;2.40;;;;;;;;;;5088449;28;20028;-77
2022/11/03 14:36:30;;;;;;;8.27;2.08;;;;;;;;;;5086338;28;20034;-77
2022/11/03 14:38:56;;;;;;;7.22;2.20;;;;;;;;;;5090802;28;20036;-77
2022/11/03 14:44:06;;;;;;;6.38;2.20;;;;;;;;;;5091896;28;20119;-78
2022/11/03 14:46:32;;;;;;;10.90;2.30;;;;;;;;;;5082336;28;20028;-79
2022/11/03 14:49:00;;;;;;;7.45;2.40;;;;;;;;;;5084419;28;20036;-78
2022/11/03 14:51:26;;;;;;;6.60;1.90;;;;;;;;;;5064360;28;20136;-81
2022/11/03 14:53:53;;;;;;;5.90;2.30;;;;;;;;;;5073378;28;20032;-79
2022/11/03 14:56:19;;;;;;;7.35;2.13;;;;;;;;;;5082268;28;20103;-80
2022/11/03 14:58:45;;;;;;;8.82;2.35;;;;;;;;;;5091682;28;20071;-78
2022/11/03 15:01:11;;;;;;;6.00;2.20;;;;;;;;;;5085583;28;20020;-78
2022/11/03 15:03:38;;;;;;;9.90;2.25;;;;;;;;;;5088813;28;20480;-78